SANT MARTÍ SACALM





Hora UTC 07:55
Temperatura 4.3 ºC
Humitat 76.5 %
Pressió 1015.3 hPa
Pluja 0.0 mm
Velocitat vent 4.7 km/h
Direcció vent NE
Radiació solar 122.2 W/m²

Dades diàries 2022-12-01



Hora UTC (hivern +1h; estiu +2h)
Temperatura (ºC) Humitat (%) Pressió (hPa) Velocitat vent (km/h) Precipitació (mm) Radiació solar (W/m²)
Hora UTC Aire Humitat Pressió Vel. Dir. Vel. Max Dir. Intent. màx 5 min. Rad. Sol.
00:05 4.8 92.8 1015.3 2.7 S 2.7 SSW 0.0 0.1
00:10 4.8 93.1 1015.2 2.2 NNE 5.7 ENE 0.0 0.1
00:15 4.7 92.6 1015.2 3.8 WNW 8.1 WNW 0.0 0.1
00:20 5.0 91.5 1015.2 3.4 NNE 6.7 N 0.0 0.1
00:25 5.0 91.0 1015.1 2.8 NNW 6.7 WNW 0.0 0.1
00:30 4.9 90.8 1015.1 0.5 N 2.5 NNW 0.0 0.1
00:35 4.9 90.4 1015.1 0.1 NNE 2.1 WSW 0.0 0.1
00:40 5.0 89.0 1015.1 2.7 NNW 5.0 W 0.0 0.1
00:45 5.1 87.6 1015.1 0.0 NNE 1.4 NNE 0.0 0.1
00:50 4.9 87.2 1015.0 0.0 NNE 0.0 ENE 0.0 0.1
00:55 4.9 88.0 1015.0 0.2 WSW 2.1 WSW 0.0 0.1
01:00 4.9 88.0 1015.0 3.3 SW 4.6 SW 0.0 0.1
01:05 4.8 89.1 1015.0 4.0 SSW 6.0 SSW 0.0 0.1
01:10 4.8 90.2 1015.0 2.3 WSW 4.2 WSW 0.0 0.1
01:15 4.9 91.7 1015.0 2.4 WSW 3.2 W 0.0 0.1
01:20 4.9 92.5 1015.0 2.5 WSW 3.5 W 0.0 0.1
01:25 5.0 93.0 1015.0 0.4 SW 1.8 SW 0.0 0.1
01:30 5.0 92.9 1015.0 1.1 SW 2.5 WSW 0.0 0.1
01:35 5.0 92.3 1015.0 1.6 WNW 3.2 NW 0.0 0.1
01:40 5.0 91.9 1015.0 1.6 WSW 2.8 WSW 0.0 0.1
01:45 5.0 91.2 1015.0 1.2 NNW 2.8 NNW 0.0 0.1
01:50 5.0 89.4 1015.0 1.6 NW 3.9 NW 0.0 0.1
01:55 5.1 88.5 1015.0 2.8 N 3.9 NNW 0.0 0.1
02:00 5.1 88.1 1015.0 2.9 NNE 4.2 NNE 0.0 0.1
02:05 5.2 86.8 1015.0 2.0 NNW 3.9 NW 0.0 0.1
02:10 5.3 85.4 1015.0 1.1 NW 3.2 NW 0.0 0.1
02:15 5.3 85.5 1015.0 2.2 WNW 6.0 WNW 0.0 0.1
02:20 5.3 85.1 1015.0 6.9 NW 14.1 WNW 0.0 0.1
02:25 5.4 83.6 1015.0 6.9 NW 13.4 W 0.0 0.1
02:30 5.2 84.4 1015.0 6.2 N 9.9 N 0.0 0.1
02:35 4.9 85.5 1014.9 7.6 N 11.3 N 0.0 0.1
02:40 4.8 86.5 1014.9 6.9 N 8.8 NNE 0.0 0.1
02:45 4.7 86.9 1014.9 7.1 NNW 9.5 NNW 0.0 0.1
02:50 4.6 85.4 1014.9 7.3 NNW 10.6 NNW 0.0 0.1
02:55 4.5 86.4 1014.9 7.1 N 11.3 N 0.0 0.1
03:00 4.6 87.4 1014.9 7.2 N 10.6 N 0.0 0.1
03:05 4.5 87.7 1014.9 6.3 N 10.3 NNW 0.0 0.1
03:10 4.6 88.0 1014.9 5.6 NNE 9.5 NNE 0.0 0.1
03:15 4.6 88.1 1014.8 6.7 NNE 10.6 N 0.0 0.1
03:20 4.5 88.6 1014.8 6.3 N 9.2 N 0.0 0.1
03:25 4.5 88.9 1014.7 6.4 N 10.3 NNW 0.0 0.1
03:30 4.5 89.4 1014.7 5.8 N 8.8 NNE 0.0 0.1
03:35 4.4 89.7 1014.7 6.3 N 9.5 N 0.0 0.1
03:40 4.3 89.9 1014.7 6.8 N 10.6 N 0.0 0.1
03:45 4.2 90.0 1014.7 6.5 NNE 9.5 NNE 0.0 0.1
03:50 4.0 90.6 1014.6 6.9 NNE 10.6 NE 0.0 0.1
03:55 3.8 92.0 1014.6 7.8 NNE 13.1 NNE 0.0 0.1
04:00 3.7 92.7 1014.6 8.4 NNE 11.7 NNE 0.0 0.1
04:05 3.7 93.2 1014.6 8.0 NNE 12.0 NNE 0.0 0.1
04:10 3.7 93.6 1014.6 7.2 NNE 11.3 NE 0.0 0.1
04:15 3.6 93.6 1014.6 7.5 NE 12.7 NE 0.0 0.1
04:20 3.6 93.8 1014.6 8.7 NNE 11.7 NNE 0.0 0.1
04:25 3.6 93.8 1014.6 9.1 NNE 14.1 NNE 0.0 0.1
04:30 3.6 92.8 1014.6 9.2 N 14.1 N 0.0 0.1
04:35 3.6 89.3 1014.6 9.5 N 14.5 N 0.0 0.1
04:40 3.5 87.8 1014.6 8.2 N 11.7 NNE 0.0 0.1
04:45 3.6 86.3 1014.6 7.6 N 11.7 N 0.0 0.1
04:50 3.6 85.5 1014.6 6.8 N 10.6 NNE 0.0 0.1
04:55 3.7 84.1 1014.6 7.5 N 11.7 N 0.0 0.1
05:00 3.8 82.9 1014.6 7.2 N 11.3 NNE 0.0 0.1
05:05 3.8 82.4 1014.6 8.8 NNE 14.5 NE 0.0 0.1
05:10 3.7 82.4 1014.5 8.5 NNE 12.0 NE 0.0 0.1
05:15 3.7 82.8 1014.5 7.5 NNE 11.7 NE 0.0 0.1
05:20 3.6 82.9 1014.6 6.9 NNE 10.3 NNE 0.0 0.1
05:25 3.6 83.4 1014.5 7.4 NNE 9.9 N 0.0 0.1
05:30 3.8 83.0 1014.5 6.4 NNE 11.0 N 0.0 0.1
05:35 3.7 83.3 1014.6 6.0 NNE 10.3 NNE 0.0 0.1
05:40 3.6 84.5 1014.5 8.9 NNE 12.7 NNE 0.0 0.1
05:45 3.5 84.7 1014.6 7.9 NNE 14.5 NNE 0.0 0.1
05:50 3.5 84.5 1014.5 8.8 NNE 15.9 NNE 0.0 0.1
05:55 3.5 84.5 1014.6 8.2 NNE 15.2 NNE 0.0 0.1
06:00 3.5 84.3 1014.6 8.4 NNE 17.0 NNE 0.0 0.1
06:05 3.5 84.5 1014.6 8.6 NNE 15.9 NNE 0.0 0.1
06:10 3.5 84.5 1014.6 9.7 NNE 15.9 NE 0.0 0.1
06:15 3.5 83.8 1014.7 8.8 NNE 14.1 N 0.0 0.1
06:20 3.6 82.4 1014.7 10.0 NNE 16.6 NNE 0.0 0.1
06:25 3.6 81.7 1014.7 8.6 NNE 15.2 NNE 0.0 0.1
06:30 3.6 81.6 1014.8 10.5 NNE 18.0 NNE 0.0 0.1
06:35 3.6 80.7 1014.8 8.3 NNE 17.0 NNE 0.0 0.1
06:40 3.6 81.0 1014.8 8.6 NNE 13.4 NE 0.0 0.2
06:45 3.5 80.9 1014.8 9.1 NNE 13.8 NNE 0.0 0.4
06:50 3.5 80.6 1014.8 9.5 NNE 14.8 NE 0.0 0.9
06:55 3.4 81.1 1014.9 8.5 NNE 15.9 ENE 0.0 1.9
07:00 3.4 80.9 1014.9 7.4 NNE 12.7 NE 0.0 3.3
07:05 3.4 80.8 1014.9 8.0 NNE 13.8 NNE 0.0 5.5
07:10 3.4 81.0 1014.9 7.4 NNE 11.0 ENE 0.0 7.9
07:15 3.4 80.7 1014.9 7.3 NNE 11.7 NE 0.0 10.0
07:20 3.5 80.5 1015.0 7.6 NNE 11.7 NNE 0.0 12.0
07:25 3.5 80.4 1015.0 7.8 NNE 11.3 NNE 0.0 14.3
07:30 3.5 80.4 1015.0 7.2 NE 11.7 NE 0.0 34.4
07:35 3.6 79.9 1015.1 7.1 NE 13.1 NE 0.0 72.3
07:40 3.8 78.9 1015.1 4.7 NE 8.5 ENE 0.0 84.8
07:45 3.9 78.6 1015.2 5.6 NE 9.2 NE 0.0 96.7
07:50 4.1 77.6 1015.2 5.0 NE 9.2 NE 0.0 109.2
07:55 4.3 76.5 1015.3 4.7 NE 7.8 NE 0.0 122.2
Màxima 5.5 93.8 1015.3 10.5 NNE 18.0 NNE 0.0 122.2
Mínima 3.4 76.5 1014.5
Total 0.0